sensor_id;sensor_type;location;lat;lon;timestamp;temperature;humidity
70826;SHT31;58446;41.490;22.098;2023-05-02T00:00:36;14.73;72.94
70826;SHT31;58446;41.490;22.098;2023-05-02T00:03:03;14.64;73.34
70826;SHT31;58446;41.490;22.098;2023-05-02T00:05:29;14.55;73.57
70826;SHT31;58446;41.490;22.098;2023-05-02T00:07:55;14.57;73.56
70826;SHT31;58446;41.490;22.098;2023-05-02T00:10:21;14.55;73.75
70826;SHT31;58446;41.490;22.098;2023-05-02T00:12:47;14.60;73.60
70826;SHT31;58446;41.490;22.098;2023-05-02T00:15:13;14.59;73.59
70826;SHT31;58446;41.490;22.098;2023-05-02T00:17:39;14.46;73.75
70826;SHT31;58446;41.490;22.098;2023-05-02T00:20:07;14.39;74.12
70826;SHT31;58446;41.490;22.098;2023-05-02T00:22:34;14.44;73.82
70826;SHT31;58446;41.490;22.098;2023-05-02T00:25:00;14.40;73.88
70826;SHT31;58446;41.490;22.098;2023-05-02T00:27:26;14.41;73.87
70826;SHT31;58446;41.490;22.098;2023-05-02T00:29:52;14.36;73.98
70826;SHT31;58446;41.490;22.098;2023-05-02T00:32:18;14.37;74.03
70826;SHT31;58446;41.490;22.098;2023-05-02T00:34:44;14.32;74.11
70826;SHT31;58446;41.490;22.098;2023-05-02T00:37:09;14.33;73.93
70826;SHT31;58446;41.490;22.098;2023-05-02T00:39:36;14.29;74.15
70826;SHT31;58446;41.490;22.098;2023-05-02T00:42:02;14.30;74.08
70826;SHT31;58446;41.490;22.098;2023-05-02T00:44:28;14.30;74.13
70826;SHT31;58446;41.490;22.098;2023-05-02T00:46:54;14.40;73.92
70826;SHT31;58446;41.490;22.098;2023-05-02T00:49:21;14.40;73.80
70826;SHT31;58446;41.490;22.098;2023-05-02T00:51:47;14.33;74.11
70826;SHT31;58446;41.490;22.098;2023-05-02T00:54:13;14.39;73.89
70826;SHT31;58446;41.490;22.098;2023-05-02T00:56:39;14.39;73.95
70826;SHT31;58446;41.490;22.098;2023-05-02T00:59:06;14.37;73.80
70826;SHT31;58446;41.490;22.098;2023-05-02T01:10:00;14.63;73.23
70826;SHT31;58446;41.490;22.098;2023-05-02T01:12:47;14.60;73.23
70826;SHT31;58446;41.490;22.098;2023-05-02T01:15:20;14.57;73.28
70826;SHT31;58446;41.490;22.098;2023-05-02T01:17:47;14.50;73.63
70826;SHT31;58446;41.490;22.098;2023-05-02T01:20:18;14.37;73.98
70826;SHT31;58446;41.490;22.098;2023-05-02T01:22:45;14.22;74.37
70826;SHT31;58446;41.490;22.098;2023-05-02T01:30:33;14.36;74.09
70826;SHT31;58446;41.490;22.098;2023-05-02T01:33:01;14.22;74.54
70826;SHT31;58446;41.490;22.098;2023-05-02T01:35:29;14.22;74.60
70826;SHT31;58446;41.490;22.098;2023-05-02T01:37:58;14.59;73.30
70826;SHT31;58446;41.490;22.098;2023-05-02T01:40:25;14.70;72.99
70826;SHT31;58446;41.490;22.098;2023-05-02T01:42:52;14.70;72.97
70826;SHT31;58446;41.490;22.098;2023-05-02T01:45:19;14.66;73.21
70826;SHT31;58446;41.490;22.098;2023-05-02T01:47:46;14.73;73.01
70826;SHT31;58446;41.490;22.098;2023-05-02T01:50:16;14.57;73.70
70826;SHT31;58446;41.490;22.098;2023-05-02T01:52:43;14.56;73.69
70826;SHT31;58446;41.490;22.098;2023-05-02T01:55:13;14.46;74.07
70826;SHT31;58446;41.490;22.098;2023-05-02T01:57:41;14.50;73.93
70826;SHT31;58446;41.490;22.098;2023-05-02T02:00:08;14.47;74.16
70826;SHT31;58446;41.490;22.098;2023-05-02T02:02:36;14.40;74.42
70826;SHT31;58446;41.490;22.098;2023-05-02T02:05:04;14.40;74.32
70826;SHT31;58446;41.490;22.098;2023-05-02T02:07:30;14.41;74.21
70826;SHT31;58446;41.490;22.098;2023-05-02T02:09:56;14.51;73.77
70826;SHT31;58446;41.490;22.098;2023-05-02T02:12:26;14.40;74.56
70826;SHT31;58446;41.490;22.098;2023-05-02T02:14:59;14.41;74.32
70826;SHT31;58446;41.490;22.098;2023-05-02T02:17:42;14.32;74.86
70826;SHT31;58446;41.490;22.098;2023-05-02T02:20:10;14.37;74.56
70826;SHT31;58446;41.490;22.098;2023-05-02T02:22:38;14.36;74.67
70826;SHT31;58446;41.490;22.098;2023-05-02T02:25:07;14.02;75.82
70826;SHT31;58446;41.490;22.098;2023-05-02T02:27:33;14.15;75.34
70826;SHT31;58446;41.490;22.098;2023-05-02T02:30:00;14.33;74.69
70826;SHT31;58446;41.490;22.098;2023-05-02T02:32:26;14.41;74.42
70826;SHT31;58446;41.490;22.098;2023-05-02T02:34:52;14.56;73.78
70826;SHT31;58446;41.490;22.098;2023-05-02T02:37:29;14.68;73.24
70826;SHT31;58446;41.490;22.098;2023-05-02T02:48:32;14.91;72.41
70826;SHT31;58446;41.490;22.098;2023-05-02T02:51:24;15.02;71.78
70826;SHT31;58446;41.490;22.098;2023-05-02T02:56:41;15.11;71.59
70826;SHT31;58446;41.490;22.098;2023-05-02T02:59:31;15.24;71.29
70826;SHT31;58446;41.490;22.098;2023-05-02T03:02:08;15.27;71.05
70826;SHT31;58446;41.490;22.098;2023-05-02T03:04:41;15.39;70.38
70826;SHT31;58446;41.490;22.098;2023-05-02T03:07:08;15.22;70.95
70826;SHT31;58446;41.490;22.098;2023-05-02T03:09:45;15.28;71.13
70826;SHT31;58446;41.490;22.098;2023-05-02T03:12:11;15.46;70.36
70826;SHT31;58446;41.490;22.098;2023-05-02T03:14:37;15.29;70.65
70826;SHT31;58446;41.490;22.098;2023-05-02T03:17:03;15.15;71.19
70826;SHT31;58446;41.490;22.098;2023-05-02T03:19:29;15.01;71.55
70826;SHT31;58446;41.490;22.098;2023-05-02T03:21:56;15.05;71.38
70826;SHT31;58446;41.490;22.098;2023-05-02T03:24:21;14.94;71.68
70826;SHT31;58446;41.490;22.098;2023-05-02T03:26:47;14.70;72.27
70826;SHT31;58446;41.490;22.098;2023-05-02T03:29:13;14.76;72.56
70826;SHT31;58446;41.490;22.098;2023-05-02T03:31:39;14.73;72.28
70826;SHT31;58446;41.490;22.098;2023-05-02T03:34:05;14.63;72.72
70826;SHT31;58446;41.490;22.098;2023-05-02T03:36:31;14.57;72.91
70826;SHT31;58446;41.490;22.098;2023-05-02T03:38:56;14.56;73.04
70826;SHT31;58446;41.490;22.098;2023-05-02T03:41:22;14.50;73.16
70826;SHT31;58446;41.490;22.098;2023-05-02T03:43:50;14.63;72.84
70826;SHT31;58446;41.490;22.098;2023-05-02T03:46:15;14.56;73.06
70826;SHT31;58446;41.490;22.098;2023-05-02T03:48:41;14.55;73.02
70826;SHT31;58446;41.490;22.098;2023-05-02T03:51:07;14.57;73.02
70826;SHT31;58446;41.490;22.098;2023-05-02T03:53:35;14.51;73.15
70826;SHT31;58446;41.490;22.098;2023-05-02T03:56:01;14.56;73.14
70826;SHT31;58446;41.490;22.098;2023-05-02T03:58:27;14.55;73.25
70826;SHT31;58446;41.490;22.098;2023-05-02T04:00:53;14.57;72.95
70826;SHT31;58446;41.490;22.098;2023-05-02T04:03:20;14.74;72.27
70826;SHT31;58446;41.490;22.098;2023-05-02T04:05:46;14.74;72.20
70826;SHT31;58446;41.490;22.098;2023-05-02T04:08:11;14.83;72.08
70826;SHT31;58446;41.490;22.098;2023-05-02T04:10:38;14.89;71.93
70826;SHT31;58446;41.490;22.098;2023-05-02T04:13:04;14.89;71.80
70826;SHT31;58446;41.490;22.098;2023-05-02T04:15:30;14.91;71.93
70826;SHT31;58446;41.490;22.098;2023-05-02T04:17:59;14.99;71.64
70826;SHT31;58446;41.490;22.098;2023-05-02T04:20:25;14.92;71.61
70826;SHT31;58446;41.490;22.098;2023-05-02T04:22:51;14.88;71.79
70826;SHT31;58446;41.490;22.098;2023-05-02T04:25:17;14.94;71.74
70826;SHT31;58446;41.490;22.098;2023-05-02T04:27:43;15.07;71.25
70826;SHT31;58446;41.490;22.098;2023-05-02T04:30:09;15.15;71.25
70826;SHT31;58446;41.490;22.098;2023-05-02T04:32:35;15.32;70.62
70826;SHT31;58446;41.490;22.098;2023-05-02T04:35:01;15.42;70.19
70826;SHT31;58446;41.490;22.098;2023-05-02T04:37:27;15.48;70.08
70826;SHT31;58446;41.490;22.098;2023-05-02T04:39:52;15.59;69.84
70826;SHT31;58446;41.490;22.098;2023-05-02T04:42:18;15.63;69.98
70826;SHT31;58446;41.490;22.098;2023-05-02T04:44:44;15.79;69.31
70826;SHT31;58446;41.490;22.098;2023-05-02T04:47:10;16.01;68.54
70826;SHT31;58446;41.490;22.098;2023-05-02T04:49:36;16.11;68.67
70826;SHT31;58446;41.490;22.098;2023-05-02T04:52:02;16.25;68.12
70826;SHT31;58446;41.490;22.098;2023-05-02T04:54:27;16.28;67.92
70826;SHT31;58446;41.490;22.098;2023-05-02T04:56:53;16.40;67.88
70826;SHT31;58446;41.490;22.098;2023-05-02T04:59:19;16.45;67.86
70826;SHT31;58446;41.490;22.098;2023-05-02T05:01:44;16.51;67.40
70826;SHT31;58446;41.490;22.098;2023-05-02T05:04:10;16.67;67.22
70826;SHT31;58446;41.490;22.098;2023-05-02T05:06:36;16.64;66.92
70826;SHT31;58446;41.490;22.098;2023-05-02T05:09:02;16.78;66.60
70826;SHT31;58446;41.490;22.098;2023-05-02T05:11:28;16.86;66.43
70826;SHT31;58446;41.490;22.098;2023-05-02T05:13:54;16.92;66.13
70826;SHT31;58446;41.490;22.098;2023-05-02T05:16:19;16.65;67.01
70826;SHT31;58446;41.490;22.098;2023-05-02T05:18:45;16.47;67.43
70826;SHT31;58446;41.490;22.098;2023-05-02T05:21:11;16.21;67.81
70826;SHT31;58446;41.490;22.098;2023-05-02T05:23:37;16.03;68.42
70826;SHT31;58446;41.490;22.098;2023-05-02T05:26:13;15.82;69.26
70826;SHT31;58446;41.490;22.098;2023-05-02T05:28:42;15.76;69.64
70826;SHT31;58446;41.490;22.098;2023-05-02T05:31:12;15.74;69.79
70826;SHT31;58446;41.490;22.098;2023-05-02T05:33:38;15.76;69.26
70826;SHT31;58446;41.490;22.098;2023-05-02T05:36:05;15.71;68.99
70826;SHT31;58446;41.490;22.098;2023-05-02T05:38:31;15.73;69.41
70826;SHT31;58446;41.490;22.098;2023-05-02T05:40:57;16.01;68.96
70826;SHT31;58446;41.490;22.098;2023-05-02T05:43:23;16.31;68.09
70826;SHT31;58446;41.490;22.098;2023-05-02T05:45:52;16.49;66.83
70826;SHT31;58446;41.490;22.098;2023-05-02T05:48:18;16.71;66.55
70826;SHT31;58446;41.490;22.098;2023-05-02T05:50:44;16.78;66.21
70826;SHT31;58446;41.490;22.098;2023-05-02T05:53:10;17.05;66.05
70826;SHT31;58446;41.490;22.098;2023-05-02T05:55:36;17.22;65.33
70826;SHT31;58446;41.490;22.098;2023-05-02T05:58:03;17.24;64.35
70826;SHT31;58446;41.490;22.098;2023-05-02T06:00:29;17.20;63.70
70826;SHT31;58446;41.490;22.098;2023-05-02T06:02:55;17.29;64.46
70826;SHT31;58446;41.490;22.098;2023-05-02T06:05:21;17.48;64.03
70826;SHT31;58446;41.490;22.098;2023-05-02T06:07:47;17.50;63.81
70826;SHT31;58446;41.490;22.098;2023-05-02T06:10:12;17.51;64.34
70826;SHT31;58446;41.490;22.098;2023-05-02T06:12:38;17.66;64.09
70826;SHT31;58446;41.490;22.098;2023-05-02T06:15:04;17.78;63.36
70826;SHT31;58446;41.490;22.098;2023-05-02T06:17:30;17.98;62.40
70826;SHT31;58446;41.490;22.098;2023-05-02T06:19:56;17.94;61.82
70826;SHT31;58446;41.490;22.098;2023-05-02T06:22:21;17.92;61.59
70826;SHT31;58446;41.490;22.098;2023-05-02T06:24:47;17.79;61.15
70826;SHT31;58446;41.490;22.098;2023-05-02T06:27:13;17.78;61.96
70826;SHT31;58446;41.490;22.098;2023-05-02T06:29:38;17.82;62.15
70826;SHT31;58446;41.490;22.098;2023-05-02T06:32:05;17.74;61.56
70826;SHT31;58446;41.490;22.098;2023-05-02T06:34:31;17.74;61.34
70826;SHT31;58446;41.490;22.098;2023-05-02T06:36:59;17.98;61.54
70826;SHT31;58446;41.490;22.098;2023-05-02T06:39:25;18.13;60.65
70826;SHT31;58446;41.490;22.098;2023-05-02T06:41:58;18.01;60.17
70826;SHT31;58446;41.490;22.098;2023-05-02T06:44:24;17.99;60.24
70826;SHT31;58446;41.490;22.098;2023-05-02T06:46:50;18.08;60.61
70826;SHT31;58446;41.490;22.098;2023-05-02T06:49:16;17.99;59.77
70826;SHT31;58446;41.490;22.098;2023-05-02T06:51:42;17.97;60.00
70826;SHT31;58446;41.490;22.098;2023-05-02T06:54:08;18.02;60.44
70826;SHT31;58446;41.490;22.098;2023-05-02T06:56:34;17.94;60.33
70826;SHT31;58446;41.490;22.098;2023-05-02T06:59:00;18.10;60.18
70826;SHT31;58446;41.490;22.098;2023-05-02T07:01:26;18.28;59.52
70826;SHT31;58446;41.490;22.098;2023-05-02T07:03:52;18.45;60.19
70826;SHT31;58446;41.490;22.098;2023-05-02T07:06:19;18.60;59.32
70826;SHT31;58446;41.490;22.098;2023-05-02T07:08:46;18.50;58.81
70826;SHT31;58446;41.490;22.098;2023-05-02T07:11:11;18.28;59.18
70826;SHT31;58446;41.490;22.098;2023-05-02T07:13:37;18.33;59.24
70826;SHT31;58446;41.490;22.098;2023-05-02T07:16:03;18.30;58.80
70826;SHT31;58446;41.490;22.098;2023-05-02T07:18:29;18.01;60.04
70826;SHT31;58446;41.490;22.098;2023-05-02T07:20:58;17.94;60.54
70826;SHT31;58446;41.490;22.098;2023-05-02T07:23:25;17.88;60.53
70826;SHT31;58446;41.490;22.098;2023-05-02T07:25:51;17.97;60.01
70826;SHT31;58446;41.490;22.098;2023-05-02T07:28:17;18.02;59.60
70826;SHT31;58446;41.490;22.098;2023-05-02T07:30:43;17.98;59.32
70826;SHT31;58446;41.490;22.098;2023-05-02T07:33:08;18.04;60.38
70826;SHT31;58446;41.490;22.098;2023-05-02T07:35:34;18.06;58.59
70826;SHT31;58446;41.490;22.098;2023-05-02T07:38:00;17.99;59.05
70826;SHT31;58446;41.490;22.098;2023-05-02T07:40:26;17.97;58.91
70826;SHT31;58446;41.490;22.098;2023-05-02T07:42:53;18.02;59.43
70826;SHT31;58446;41.490;22.098;2023-05-02T07:45:19;18.15;59.84
70826;SHT31;58446;41.490;22.098;2023-05-02T07:47:45;18.19;58.32
70826;SHT31;58446;41.490;22.098;2023-05-02T07:50:12;18.15;58.46
70826;SHT31;58446;41.490;22.098;2023-05-02T07:52:38;18.22;57.72
70826;SHT31;58446;41.490;22.098;2023-05-02T07:55:05;18.35;58.45
70826;SHT31;58446;41.490;22.098;2023-05-02T07:57:30;18.40;56.68
70826;SHT31;58446;41.490;22.098;2023-05-02T07:59:56;18.45;56.69
70826;SHT31;58446;41.490;22.098;2023-05-02T08:02:22;18.53;57.43
70826;SHT31;58446;41.490;22.098;2023-05-02T08:04:48;18.55;56.63
70826;SHT31;58446;41.490;22.098;2023-05-02T08:07:16;18.49;56.67
70826;SHT31;58446;41.490;22.098;2023-05-02T08:09:41;18.52;57.21
70826;SHT31;58446;41.490;22.098;2023-05-02T08:12:07;18.45;55.90
70826;SHT31;58446;41.490;22.098;2023-05-02T08:14:33;18.36;56.42
70826;SHT31;58446;41.490;22.098;2023-05-02T08:16:59;18.26;55.59
70826;SHT31;58446;41.490;22.098;2023-05-02T08:19:25;18.33;56.12
70826;SHT31;58446;41.490;22.098;2023-05-02T08:21:54;18.48;56.21
70826;SHT31;58446;41.490;22.098;2023-05-02T08:24:20;18.61;56.23
70826;SHT31;58446;41.490;22.098;2023-05-02T08:26:46;18.56;56.03
70826;SHT31;58446;41.490;22.098;2023-05-02T08:29:11;18.55;55.09
70826;SHT31;58446;41.490;22.098;2023-05-02T08:31:39;18.53;55.69
70826;SHT31;58446;41.490;22.098;2023-05-02T08:34:05;18.67;53.87
70826;SHT31;58446;41.490;22.098;2023-05-02T08:36:30;18.87;55.21
70826;SHT31;58446;41.490;22.098;2023-05-02T08:38:56;18.79;53.29
70826;SHT31;58446;41.490;22.098;2023-05-02T08:41:23;18.84;54.04
70826;SHT31;58446;41.490;22.098;2023-05-02T08:43:48;18.66;52.59
70826;SHT31;58446;41.490;22.098;2023-05-02T08:46:15;18.56;52.85
70826;SHT31;58446;41.490;22.098;2023-05-02T08:48:43;18.59;53.08
70826;SHT31;58446;41.490;22.098;2023-05-02T08:51:14;18.64;53.21
70826;SHT31;58446;41.490;22.098;2023-05-02T08:53:40;18.48;52.33
70826;SHT31;58446;41.490;22.098;2023-05-02T08:56:08;18.52;52.38
70826;SHT31;58446;41.490;22.098;2023-05-02T08:58:38;18.48;51.97
70826;SHT31;58446;41.490;22.098;2023-05-02T09:01:18;18.57;51.67
70826;SHT31;58446;41.490;22.098;2023-05-02T09:03:47;18.55;52.23
70826;SHT31;58446;41.490;22.098;2023-05-02T09:06:18;18.67;52.74
70826;SHT31;58446;41.490;22.098;2023-05-02T09:08:46;18.83;53.10
70826;SHT31;58446;41.490;22.098;2023-05-02T09:11:17;18.79;53.13
70826;SHT31;58446;41.490;22.098;2023-05-02T09:13:44;18.84;52.95
70826;SHT31;58446;41.490;22.098;2023-05-02T09:16:15;18.98;52.54
70826;SHT31;58446;41.490;22.098;2023-05-02T09:18:49;19.15;52.90
70826;SHT31;58446;41.490;22.098;2023-05-02T09:21:23;19.31;51.42
70826;SHT31;58446;41.490;22.098;2023-05-02T09:23:54;19.38;50.53
70826;SHT31;58446;41.490;22.098;2023-05-02T09:26:30;19.57;51.60
70826;SHT31;58446;41.490;22.098;2023-05-02T09:29:00;19.48;49.58
70826;SHT31;58446;41.490;22.098;2023-05-02T09:31:31;19.24;50.85
70826;SHT31;58446;41.490;22.098;2023-05-02T09:34:12;19.24;51.27
70826;SHT31;58446;41.490;22.098;2023-05-02T09:36:46;19.28;49.64
70826;SHT31;58446;41.490;22.098;2023-05-02T09:39:14;19.36;48.43
70826;SHT31;58446;41.490;22.098;2023-05-02T09:41:44;19.55;48.84
70826;SHT31;58446;41.490;22.098;2023-05-02T09:44:13;19.73;48.18
70826;SHT31;58446;41.490;22.098;2023-05-02T09:46:52;19.62;47.35
70826;SHT31;58446;41.490;22.098;2023-05-02T09:49:26;19.48;47.26
70826;SHT31;58446;41.490;22.098;2023-05-02T09:52:13;19.48;47.31
70826;SHT31;58446;41.490;22.098;2023-05-02T09:54:39;19.44;47.56
70826;SHT31;58446;41.490;22.098;2023-05-02T09:57:05;19.63;48.24
70826;SHT31;58446;41.490;22.098;2023-05-02T09:59:31;19.55;47.33
70826;SHT31;58446;41.490;22.098;2023-05-02T10:02:00;19.52;47.73
70826;SHT31;58446;41.490;22.098;2023-05-02T10:04:27;19.54;47.45
70826;SHT31;58446;41.490;22.098;2023-05-02T10:06:53;19.58;47.56
70826;SHT31;58446;41.490;22.098;2023-05-02T10:09:24;19.63;47.69
70826;SHT31;58446;41.490;22.098;2023-05-02T10:11:52;19.57;46.79
70826;SHT31;58446;41.490;22.098;2023-05-02T10:14:22;19.59;47.12
70826;SHT31;58446;41.490;22.098;2023-05-02T10:17:00;19.58;47.78
70826;SHT31;58446;41.490;22.098;2023-05-02T10:19:54;19.66;47.30
70826;SHT31;58446;41.490;22.098;2023-05-02T10:22:21;19.70;47.82
70826;SHT31;58446;41.490;22.098;2023-05-02T10:24:51;19.73;48.25
70826;SHT31;58446;41.490;22.098;2023-05-02T10:27:17;19.65;47.79
70826;SHT31;58446;41.490;22.098;2023-05-02T10:29:45;19.79;47.86
70826;SHT31;58446;41.490;22.098;2023-05-02T10:32:12;19.94;47.98
70826;SHT31;58446;41.490;22.098;2023-05-02T10:34:40;19.87;46.13
70826;SHT31;58446;41.490;22.098;2023-05-02T10:37:06;19.90;47.02
70826;SHT31;58446;41.490;22.098;2023-05-02T10:39:32;19.89;47.56
70826;SHT31;58446;41.490;22.098;2023-05-02T10:41:58;19.86;48.25
70826;SHT31;58446;41.490;22.098;2023-05-02T10:44:33;19.87;47.12
70826;SHT31;58446;41.490;22.098;2023-05-02T10:46:59;19.89;47.80
70826;SHT31;58446;41.490;22.098;2023-05-02T10:49:25;20.00;47.55
70826;SHT31;58446;41.490;22.098;2023-05-02T10:51:52;20.10;47.57
70826;SHT31;58446;41.490;22.098;2023-05-02T11:02:00;20.09;47.83
70826;SHT31;58446;41.490;22.098;2023-05-02T11:05:04;20.23;47.54
70826;SHT31;58446;41.490;22.098;2023-05-02T11:07:33;20.37;46.97
70826;SHT31;58446;41.490;22.098;2023-05-02T11:12:48;20.58;47.09
70826;SHT31;58446;41.490;22.098;2023-05-02T11:18:05;20.85;47.02
70826;SHT31;58446;41.490;22.098;2023-05-02T11:20:33;20.87;47.29
70826;SHT31;58446;41.490;22.098;2023-05-02T11:23:20;20.68;46.94
70826;SHT31;58446;41.490;22.098;2023-05-02T11:25:53;20.68;47.32
70826;SHT31;58446;41.490;22.098;2023-05-02T11:28:40;20.65;46.30
70826;SHT31;58446;41.490;22.098;2023-05-02T11:31:08;20.67;46.14
70826;SHT31;58446;41.490;22.098;2023-05-02T11:33:35;20.65;45.63
70826;SHT31;58446;41.490;22.098;2023-05-02T11:36:01;20.85;44.74
70826;SHT31;58446;41.490;22.098;2023-05-02T11:38:36;21.10;44.10
70826;SHT31;58446;41.490;22.098;2023-05-02T11:41:02;21.26;43.91
70826;SHT31;58446;41.490;22.098;2023-05-02T11:43:28;21.30;43.82
70826;SHT31;58446;41.490;22.098;2023-05-02T11:45:55;21.42;43.55
70826;SHT31;58446;41.490;22.098;2023-05-02T11:48:22;21.70;41.81
70826;SHT31;58446;41.490;22.098;2023-05-02T11:50:56;21.98;42.11
70826;SHT31;58446;41.490;22.098;2023-05-02T11:53:26;21.98;40.35
70826;SHT31;58446;41.490;22.098;2023-05-02T11:55:58;22.00;39.56
70826;SHT31;58446;41.490;22.098;2023-05-02T11:58:25;21.73;40.55
70826;SHT31;58446;41.490;22.098;2023-05-02T12:00:57;21.32;38.90
70826;SHT31;58446;41.490;22.098;2023-05-02T12:03:29;21.10;41.44
70826;SHT31;58446;41.490;22.098;2023-05-02T12:06:07;20.92;41.77
70826;SHT31;58446;41.490;22.098;2023-05-02T12:08:34;20.87;39.73
70826;SHT31;58446;41.490;22.098;2023-05-02T12:11:01;21.03;38.89
70826;SHT31;58446;41.490;22.098;2023-05-02T12:13:29;21.29;39.48
70826;SHT31;58446;41.490;22.098;2023-05-02T12:15:55;21.28;39.53
70826;SHT31;58446;41.490;22.098;2023-05-02T12:18:22;21.25;39.95
70826;SHT31;58446;41.490;22.098;2023-05-02T12:20:50;21.25;41.17
70826;SHT31;58446;41.490;22.098;2023-05-02T12:23:23;21.19;41.60
70826;SHT31;58446;41.490;22.098;2023-05-02T12:25:49;21.20;38.92
70826;SHT31;58446;41.490;22.098;2023-05-02T12:28:18;21.02;39.64
70826;SHT31;58446;41.490;22.098;2023-05-02T12:30:47;21.16;39.30
70826;SHT31;58446;41.490;22.098;2023-05-02T12:33:13;21.08;39.63
70826;SHT31;58446;41.490;22.098;2023-05-02T12:35:39;21.10;41.06
70826;SHT31;58446;41.490;22.098;2023-05-02T12:38:13;21.25;40.90
70826;SHT31;58446;41.490;22.098;2023-05-02T12:41:00;21.32;40.03
70826;SHT31;58446;41.490;22.098;2023-05-02T12:43:25;21.42;40.51
70826;SHT31;58446;41.490;22.098;2023-05-02T12:46:08;21.57;40.93
70826;SHT31;58446;41.490;22.098;2023-05-02T12:48:34;21.71;41.65
70826;SHT31;58446;41.490;22.098;2023-05-02T12:51:00;21.56;40.41
70826;SHT31;58446;41.490;22.098;2023-05-02T12:53:42;21.67;41.74
70826;SHT31;58446;41.490;22.098;2023-05-02T12:56:11;21.84;40.27
70826;SHT31;58446;41.490;22.098;2023-05-02T12:58:41;21.80;39.83
70826;SHT31;58446;41.490;22.098;2023-05-02T13:01:07;21.83;41.56
70826;SHT31;58446;41.490;22.098;2023-05-02T13:03:34;21.84;40.13
70826;SHT31;58446;41.490;22.098;2023-05-02T13:06:00;21.88;40.75
70826;SHT31;58446;41.490;22.098;2023-05-02T13:08:27;22.02;40.49
70826;SHT31;58446;41.490;22.098;2023-05-02T13:10:52;21.91;38.72
70826;SHT31;58446;41.490;22.098;2023-05-02T13:13:18;21.94;38.72
70826;SHT31;58446;41.490;22.098;2023-05-02T13:15:44;22.04;38.45
70826;SHT31;58446;41.490;22.098;2023-05-02T13:18:10;22.05;37.93
70826;SHT31;58446;41.490;22.098;2023-05-02T13:20:37;21.98;38.58
70826;SHT31;58446;41.490;22.098;2023-05-02T13:23:03;22.17;38.16
70826;SHT31;58446;41.490;22.098;2023-05-02T13:25:29;22.11;37.38
70826;SHT31;58446;41.490;22.098;2023-05-02T13:27:57;22.11;38.74
70826;SHT31;58446;41.490;22.098;2023-05-02T13:30:23;22.17;38.90
70826;SHT31;58446;41.490;22.098;2023-05-02T13:32:48;22.09;37.36
70826;SHT31;58446;41.490;22.098;2023-05-02T13:35:14;22.17;38.09
70826;SHT31;58446;41.490;22.098;2023-05-02T13:37:40;22.32;38.92
70826;SHT31;58446;41.490;22.098;2023-05-02T13:40:07;22.38;36.94
70826;SHT31;58446;41.490;22.098;2023-05-02T13:42:33;22.37;37.19
70826;SHT31;58446;41.490;22.098;2023-05-02T13:44:59;22.38;35.89
70826;SHT31;58446;41.490;22.098;2023-05-02T13:47:27;22.29;35.40
70826;SHT31;58446;41.490;22.098;2023-05-02T13:49:52;22.27;36.64
70826;SHT31;58446;41.490;22.098;2023-05-02T13:52:18;22.21;37.25
70826;SHT31;58446;41.490;22.098;2023-05-02T13:54:44;22.31;35.13
70826;SHT31;58446;41.490;22.098;2023-05-02T13:57:10;22.34;35.86
70826;SHT31;58446;41.490;22.098;2023-05-02T13:59:36;22.34;35.85
70826;SHT31;58446;41.490;22.098;2023-05-02T14:02:02;22.27;34.39
70826;SHT31;58446;41.490;22.098;2023-05-02T14:04:27;22.25;34.25
70826;SHT31;58446;41.490;22.098;2023-05-02T14:06:53;22.32;34.70
70826;SHT31;58446;41.490;22.098;2023-05-02T14:09:19;22.25;34.82
70826;SHT31;58446;41.490;22.098;2023-05-02T14:11:45;22.21;34.20
70826;SHT31;58446;41.490;22.098;2023-05-02T14:14:12;22.21;34.98
70826;SHT31;58446;41.490;22.098;2023-05-02T14:16:38;22.14;33.82
70826;SHT31;58446;41.490;22.098;2023-05-02T14:19:04;22.21;34.84
70826;SHT31;58446;41.490;22.098;2023-05-02T14:21:30;22.27;34.54
70826;SHT31;58446;41.490;22.098;2023-05-02T14:23:56;22.25;34.32
70826;SHT31;58446;41.490;22.098;2023-05-02T14:26:22;22.12;34.48
70826;SHT31;58446;41.490;22.098;2023-05-02T14:28:48;22.01;35.45
70826;SHT31;58446;41.490;22.098;2023-05-02T14:31:13;22.05;35.51
70826;SHT31;58446;41.490;22.098;2023-05-02T14:33:39;21.97;34.08
70826;SHT31;58446;41.490;22.098;2023-05-02T14:36:05;21.93;34.97
70826;SHT31;58446;41.490;22.098;2023-05-02T14:38:30;21.98;33.97
70826;SHT31;58446;41.490;22.098;2023-05-02T14:40:56;21.97;33.48
70826;SHT31;58446;41.490;22.098;2023-05-02T14:43:22;21.96;34.15
70826;SHT31;58446;41.490;22.098;2023-05-02T14:45:48;21.96;34.25
70826;SHT31;58446;41.490;22.098;2023-05-02T14:48:14;21.90;34.07
70826;SHT31;58446;41.490;22.098;2023-05-02T14:50:42;21.86;33.53
70826;SHT31;58446;41.490;22.098;2023-05-02T14:53:08;21.86;34.73
70826;SHT31;58446;41.490;22.098;2023-05-02T14:55:37;21.84;34.65
70826;SHT31;58446;41.490;22.098;2023-05-02T14:58:07;21.81;34.55
70826;SHT31;58446;41.490;22.098;2023-05-02T15:00:37;21.73;34.76
70826;SHT31;58446;41.490;22.098;2023-05-02T15:03:06;21.73;34.95
70826;SHT31;58446;41.490;22.098;2023-05-02T15:05:35;21.78;34.48
70826;SHT31;58446;41.490;22.098;2023-05-02T15:08:00;21.84;34.72
70826;SHT31;58446;41.490;22.098;2023-05-02T15:10:26;21.91;35.03
70826;SHT31;58446;41.490;22.098;2023-05-02T15:12:52;21.98;33.50
70826;SHT31;58446;41.490;22.098;2023-05-02T15:15:18;21.94;34.49
70826;SHT31;58446;41.490;22.098;2023-05-02T15:17:49;21.97;34.69
70826;SHT31;58446;41.490;22.098;2023-05-02T15:20:15;21.97;34.68
70826;SHT31;58446;41.490;22.098;2023-05-02T15:22:41;21.96;35.51
70826;SHT31;58446;41.490;22.098;2023-05-02T15:25:07;21.91;34.07
70826;SHT31;58446;41.490;22.098;2023-05-02T15:27:33;21.86;34.38
70826;SHT31;58446;41.490;22.098;2023-05-02T15:29:58;21.86;34.39
70826;SHT31;58446;41.490;22.098;2023-05-02T15:32:24;21.86;34.50
70826;SHT31;58446;41.490;22.098;2023-05-02T15:34:50;21.83;34.92
70826;SHT31;58446;41.490;22.098;2023-05-02T15:37:15;21.76;35.52
70826;SHT31;58446;41.490;22.098;2023-05-02T15:39:41;21.77;35.47
70826;SHT31;58446;41.490;22.098;2023-05-02T15:42:07;21.74;34.98
70826;SHT31;58446;41.490;22.098;2023-05-02T15:44:34;21.66;34.48
70826;SHT31;58446;41.490;22.098;2023-05-02T15:47:01;21.64;34.91
70826;SHT31;58446;41.490;22.098;2023-05-02T15:49:27;21.60;34.63
70826;SHT31;58446;41.490;22.098;2023-05-02T15:51:58;21.53;34.35
70826;SHT31;58446;41.490;22.098;2023-05-02T15:54:23;21.42;34.62
70826;SHT31;58446;41.490;22.098;2023-05-02T15:56:49;21.38;35.11